KTIW/TIW METAR and TAF weather

Enter ICAO airport designator
Station Type Date Time Source
KTIW METAR 2019/02/17 15:53 UTC NOAA

KTIW 171553Z 15003KT 1/2SM FG VV002 01/00 A3011 RMK AO2 SLP198 T00060000


Station Type Date Time Source
KTIW Decoded METAR 2019/02/17 15:53 UTC NOAA

Tacoma, Tacoma Narrows Airport, WA, United States (KTIW) 47-16-03N 122-34-34W 96M
Feb 17, 2019 - 10:53 AM EST / 2019.02.17 1553 UTC
Wind: from the SSE (150 degrees) at 3 MPH (3 KT):0
Visibility: 1/2 mile(s):0
Sky conditions: obscured
Weather: fog
Temperature: 33.1 F (0.6 C)
Dew Point: 32.0 F (0.0 C)
Relative Humidity: 95%
Pressure (altimeter): 30.11 in. Hg (1019 hPa)
ob: KTIW 171553Z 15003KT 1/2SM FG VV002 01/00 A3011 RMK AO2 SLP198 T00060000
cycle: 16

Station Type Date Time Source
KTIW TAF UTC NOAA

Error!


Example: see airport list